sensor_id;sensor_type;location;lat;lon;timestamp;P1;durP1;ratioP1;P2;durP2;ratioP2
71763;SDS011;59602;52.142;5.408;2023-01-16T00:01:14;5.07;;;0.40;;
71763;SDS011;59602;52.142;5.408;2023-01-16T00:03:42;3.70;;;0.32;;
71763;SDS011;59602;52.142;5.408;2023-01-16T00:06:08;2.58;;;0.30;;
71763;SDS011;59602;52.142;5.408;2023-01-16T00:08:35;1.90;;;0.40;;
71763;SDS011;59602;52.142;5.408;2023-01-16T00:11:02;3.00;;;0.30;;
71763;SDS011;59602;52.142;5.408;2023-01-16T00:13:28;4.30;;;0.40;;
71763;SDS011;59602;52.142;5.408;2023-01-16T00:15:55;4.72;;;0.63;;
71763;SDS011;59602;52.142;5.408;2023-01-16T00:18:22;4.70;;;0.63;;
71763;SDS011;59602;52.142;5.408;2023-01-16T00:20:50;1.55;;;0.40;;
71763;SDS011;59602;52.142;5.408;2023-01-16T00:23:16;3.30;;;0.50;;
71763;SDS011;59602;52.142;5.408;2023-01-16T00:25:44;4.63;;;0.30;;
71763;SDS011;59602;52.142;5.408;2023-01-16T00:28:11;2.65;;;0.40;;
71763;SDS011;59602;52.142;5.408;2023-01-16T00:30:39;2.95;;;0.50;;
71763;SDS011;59602;52.142;5.408;2023-01-16T00:33:09;3.38;;;0.40;;
71763;SDS011;59602;52.142;5.408;2023-01-16T00:35:35;2.45;;;0.40;;
71763;SDS011;59602;52.142;5.408;2023-01-16T00:38:02;4.93;;;1.10;;
71763;SDS011;59602;52.142;5.408;2023-01-16T00:40:29;2.88;;;0.68;;
71763;SDS011;59602;52.142;5.408;2023-01-16T00:42:55;2.72;;;0.43;;
71763;SDS011;59602;52.142;5.408;2023-01-16T00:45:22;1.92;;;0.57;;
71763;SDS011;59602;52.142;5.408;2023-01-16T00:47:50;2.17;;;0.80;;
71763;SDS011;59602;52.142;5.408;2023-01-16T00:50:16;1.67;;;0.63;;
71763;SDS011;59602;52.142;5.408;2023-01-16T00:52:43;3.20;;;1.00;;
71763;SDS011;59602;52.142;5.408;2023-01-16T00:55:10;1.80;;;0.60;;
71763;SDS011;59602;52.142;5.408;2023-01-16T00:57:36;2.85;;;0.80;;
71763;SDS011;59602;52.142;5.408;2023-01-16T01:00:03;1.90;;;0.80;;
71763;SDS011;59602;52.142;5.408;2023-01-16T01:02:31;3.17;;;1.20;;
71763;SDS011;59602;52.142;5.408;2023-01-16T01:04:57;3.85;;;1.20;;
71763;SDS011;59602;52.142;5.408;2023-01-16T01:07:24;3.58;;;1.40;;
71763;SDS011;59602;52.142;5.408;2023-01-16T01:09:50;4.50;;;1.35;;
71763;SDS011;59602;52.142;5.408;2023-01-16T01:12:17;6.47;;;1.70;;
71763;SDS011;59602;52.142;5.408;2023-01-16T01:14:44;4.50;;;1.87;;
71763;SDS011;59602;52.142;5.408;2023-01-16T01:17:10;4.68;;;1.58;;
71763;SDS011;59602;52.142;5.408;2023-01-16T01:19:37;6.25;;;2.00;;
71763;SDS011;59602;52.142;5.408;2023-01-16T01:22:04;5.00;;;2.45;;
71763;SDS011;59602;52.142;5.408;2023-01-16T01:24:30;5.72;;;2.47;;
71763;SDS011;59602;52.142;5.408;2023-01-16T01:26:58;5.43;;;2.17;;
71763;SDS011;59602;52.142;5.408;2023-01-16T01:29:25;5.43;;;2.50;;
71763;SDS011;59602;52.142;5.408;2023-01-16T01:31:51;4.85;;;2.47;;
71763;SDS011;59602;52.142;5.408;2023-01-16T01:34:18;7.38;;;3.10;;
71763;SDS011;59602;52.142;5.408;2023-01-16T01:36:44;7.30;;;3.28;;
71763;SDS011;59602;52.142;5.408;2023-01-16T01:39:11;6.60;;;2.83;;
71763;SDS011;59602;52.142;5.408;2023-01-16T01:41:38;5.75;;;2.90;;
71763;SDS011;59602;52.142;5.408;2023-01-16T01:47:12;7.75;;;3.63;;
71763;SDS011;59602;52.142;5.408;2023-01-16T01:49:40;7.20;;;3.58;;
71763;SDS011;59602;52.142;5.408;2023-01-16T01:52:07;7.33;;;3.40;;
71763;SDS011;59602;52.142;5.408;2023-01-16T01:54:38;8.20;;;3.80;;
71763;SDS011;59602;52.142;5.408;2023-01-16T01:57:10;7.43;;;3.30;;
71763;SDS011;59602;52.142;5.408;2023-01-16T01:59:43;7.82;;;4.18;;
71763;SDS011;59602;52.142;5.408;2023-01-16T02:02:16;7.30;;;3.47;;
71763;SDS011;59602;52.142;5.408;2023-01-16T02:04:47;7.80;;;3.13;;
71763;SDS011;59602;52.142;5.408;2023-01-16T02:07:18;7.63;;;3.58;;
71763;SDS011;59602;52.142;5.408;2023-01-16T02:09:45;7.35;;;3.20;;
71763;SDS011;59602;52.142;5.408;2023-01-16T02:12:13;7.07;;;3.42;;
71763;SDS011;59602;52.142;5.408;2023-01-16T02:14:43;7.13;;;3.03;;
71763;SDS011;59602;52.142;5.408;2023-01-16T02:17:14;5.60;;;2.57;;
71763;SDS011;59602;52.142;5.408;2023-01-16T02:28:24;6.25;;;2.55;;
71763;SDS011;59602;52.142;5.408;2023-01-16T02:31:09;7.63;;;2.30;;
71763;SDS011;59602;52.142;5.408;2023-01-16T02:36:24;7.07;;;2.28;;
71763;SDS011;59602;52.142;5.408;2023-01-16T02:38:57;6.80;;;1.65;;
71763;SDS011;59602;52.142;5.408;2023-01-16T02:41:33;4.72;;;1.70;;
71763;SDS011;59602;52.142;5.408;2023-01-16T02:47:07;6.10;;;1.50;;
71763;SDS011;59602;52.142;5.408;2023-01-16T02:49:43;3.85;;;1.35;;
71763;SDS011;59602;52.142;5.408;2023-01-16T02:52:24;6.07;;;1.10;;
71763;SDS011;59602;52.142;5.408;2023-01-16T02:55:03;2.90;;;0.98;;
71763;SDS011;59602;52.142;5.408;2023-01-16T02:57:35;2.67;;;1.20;;
71763;SDS011;59602;52.142;5.408;2023-01-16T03:00:06;4.57;;;0.93;;
71763;SDS011;59602;52.142;5.408;2023-01-16T03:02:36;3.90;;;0.65;;
71763;SDS011;59602;52.142;5.408;2023-01-16T03:05:02;5.05;;;1.00;;
71763;SDS011;59602;52.142;5.408;2023-01-16T03:07:38;3.33;;;0.60;;
71763;SDS011;59602;52.142;5.408;2023-01-16T03:15:57;2.33;;;0.65;;
71763;SDS011;59602;52.142;5.408;2023-01-16T03:18:37;3.92;;;0.40;;
71763;SDS011;59602;52.142;5.408;2023-01-16T03:21:20;4.22;;;0.47;;
71763;SDS011;59602;52.142;5.408;2023-01-16T03:23:52;6.60;;;0.97;;
71763;SDS011;59602;52.142;5.408;2023-01-16T03:26:29;4.35;;;0.73;;
71763;SDS011;59602;52.142;5.408;2023-01-16T03:29:05;4.32;;;0.38;;
71763;SDS011;59602;52.142;5.408;2023-01-16T03:39:53;2.13;;;0.30;;
71763;SDS011;59602;52.142;5.408;2023-01-16T03:42:25;2.58;;;0.30;;
71763;SDS011;59602;52.142;5.408;2023-01-16T03:45:00;3.65;;;0.30;;
71763;SDS011;59602;52.142;5.408;2023-01-16T03:47:34;3.55;;;0.35;;
71763;SDS011;59602;52.142;5.408;2023-01-16T03:50:07;3.67;;;0.20;;
71763;SDS011;59602;52.142;5.408;2023-01-16T03:52:39;1.98;;;0.20;;
71763;SDS011;59602;52.142;5.408;2023-01-16T03:55:18;6.00;;;0.73;;
71763;SDS011;59602;52.142;5.408;2023-01-16T03:57:53;3.47;;;0.43;;
71763;SDS011;59602;52.142;5.408;2023-01-16T04:00:24;2.50;;;0.25;;
71763;SDS011;59602;52.142;5.408;2023-01-16T04:03:02;1.93;;;0.30;;
71763;SDS011;59602;52.142;5.408;2023-01-16T04:05:38;4.53;;;0.50;;
71763;SDS011;59602;52.142;5.408;2023-01-16T04:08:16;2.45;;;0.35;;
71763;SDS011;59602;52.142;5.408;2023-01-16T04:10:46;2.58;;;0.30;;
71763;SDS011;59602;52.142;5.408;2023-01-16T04:13:17;2.72;;;0.20;;
71763;SDS011;59602;52.142;5.408;2023-01-16T04:15:48;2.50;;;0.30;;
71763;SDS011;59602;52.142;5.408;2023-01-16T04:18:20;3.78;;;0.20;;
71763;SDS011;59602;52.142;5.408;2023-01-16T04:20:51;3.22;;;0.28;;
71763;SDS011;59602;52.142;5.408;2023-01-16T04:23:18;2.22;;;0.30;;
71763;SDS011;59602;52.142;5.408;2023-01-16T04:25:44;4.07;;;0.63;;
71763;SDS011;59602;52.142;5.408;2023-01-16T04:28:11;3.37;;;0.40;;
71763;SDS011;59602;52.142;5.408;2023-01-16T04:30:38;2.55;;;0.20;;
71763;SDS011;59602;52.142;5.408;2023-01-16T04:33:06;1.50;;;0.20;;
71763;SDS011;59602;52.142;5.408;2023-01-16T04:35:33;1.85;;;0.20;;
71763;SDS011;59602;52.142;5.408;2023-01-16T04:38:00;3.17;;;0.30;;
71763;SDS011;59602;52.142;5.408;2023-01-16T04:40:27;2.87;;;0.30;;
71763;SDS011;59602;52.142;5.408;2023-01-16T04:42:53;2.65;;;0.30;;
71763;SDS011;59602;52.142;5.408;2023-01-16T04:45:21;2.20;;;0.35;;
71763;SDS011;59602;52.142;5.408;2023-01-16T04:47:48;1.60;;;0.15;;
71763;SDS011;59602;52.142;5.408;2023-01-16T04:50:16;3.60;;;0.20;;
71763;SDS011;59602;52.142;5.408;2023-01-16T04:52:45;1.40;;;0.17;;
71763;SDS011;59602;52.142;5.408;2023-01-16T04:55:12;5.45;;;0.38;;
71763;SDS011;59602;52.142;5.408;2023-01-16T04:57:39;4.40;;;0.50;;
71763;SDS011;59602;52.142;5.408;2023-01-16T05:00:06;2.63;;;0.40;;
71763;SDS011;59602;52.142;5.408;2023-01-16T05:02:34;1.92;;;0.32;;
71763;SDS011;59602;52.142;5.408;2023-01-16T05:05:01;3.27;;;0.20;;
71763;SDS011;59602;52.142;5.408;2023-01-16T05:07:28;1.33;;;0.20;;
71763;SDS011;59602;52.142;5.408;2023-01-16T05:09:54;3.53;;;0.40;;
71763;SDS011;59602;52.142;5.408;2023-01-16T05:12:21;3.58;;;0.28;;
71763;SDS011;59602;52.142;5.408;2023-01-16T05:14:48;2.20;;;0.30;;
71763;SDS011;59602;52.142;5.408;2023-01-16T05:17:15;3.43;;;0.20;;
71763;SDS011;59602;52.142;5.408;2023-01-16T05:19:42;3.25;;;0.30;;
71763;SDS011;59602;52.142;5.408;2023-01-16T05:22:08;3.65;;;0.25;;
71763;SDS011;59602;52.142;5.408;2023-01-16T05:24:35;2.85;;;0.50;;
71763;SDS011;59602;52.142;5.408;2023-01-16T05:27:02;4.05;;;0.25;;
71763;SDS011;59602;52.142;5.408;2023-01-16T05:29:29;1.63;;;0.20;;
71763;SDS011;59602;52.142;5.408;2023-01-16T05:31:55;1.70;;;0.30;;
71763;SDS011;59602;52.142;5.408;2023-01-16T05:34:22;2.35;;;0.20;;
71763;SDS011;59602;52.142;5.408;2023-01-16T05:36:49;5.85;;;0.30;;
71763;SDS011;59602;52.142;5.408;2023-01-16T05:39:15;2.55;;;0.20;;
71763;SDS011;59602;52.142;5.408;2023-01-16T05:41:42;3.53;;;0.30;;
71763;SDS011;59602;52.142;5.408;2023-01-16T05:44:08;2.63;;;0.20;;
71763;SDS011;59602;52.142;5.408;2023-01-16T05:46:35;4.38;;;0.35;;
71763;SDS011;59602;52.142;5.408;2023-01-16T05:49:02;4.22;;;0.70;;
71763;SDS011;59602;52.142;5.408;2023-01-16T05:51:28;3.50;;;0.52;;
71763;SDS011;59602;52.142;5.408;2023-01-16T05:53:55;6.07;;;0.50;;
71763;SDS011;59602;52.142;5.408;2023-01-16T05:56:21;4.05;;;0.40;;
71763;SDS011;59602;52.142;5.408;2023-01-16T05:58:48;3.85;;;0.40;;
71763;SDS011;59602;52.142;5.408;2023-01-16T06:01:15;4.82;;;0.40;;
71763;SDS011;59602;52.142;5.408;2023-01-16T06:03:42;5.05;;;0.65;;
71763;SDS011;59602;52.142;5.408;2023-01-16T06:06:08;10.10;;;2.40;;
71763;SDS011;59602;52.142;5.408;2023-01-16T06:08:35;3.72;;;0.70;;
71763;SDS011;59602;52.142;5.408;2023-01-16T06:11:01;5.78;;;0.90;;
71763;SDS011;59602;52.142;5.408;2023-01-16T06:13:28;3.92;;;0.40;;
71763;SDS011;59602;52.142;5.408;2023-01-16T06:15:54;2.67;;;0.40;;
71763;SDS011;59602;52.142;5.408;2023-01-16T06:18:21;3.07;;;0.30;;
71763;SDS011;59602;52.142;5.408;2023-01-16T06:20:48;3.78;;;0.30;;
71763;SDS011;59602;52.142;5.408;2023-01-16T06:23:14;2.85;;;0.55;;
71763;SDS011;59602;52.142;5.408;2023-01-16T06:25:41;4.13;;;0.60;;
71763;SDS011;59602;52.142;5.408;2023-01-16T06:28:08;3.33;;;0.30;;
71763;SDS011;59602;52.142;5.408;2023-01-16T06:30:35;3.53;;;0.50;;
71763;SDS011;59602;52.142;5.408;2023-01-16T06:33:04;2.22;;;0.88;;
71763;SDS011;59602;52.142;5.408;2023-01-16T06:35:31;3.15;;;0.40;;
71763;SDS011;59602;52.142;5.408;2023-01-16T06:37:59;6.72;;;0.45;;
71763;SDS011;59602;52.142;5.408;2023-01-16T06:40:26;10.38;;;2.72;;
71763;SDS011;59602;52.142;5.408;2023-01-16T06:42:54;4.00;;;0.40;;
71763;SDS011;59602;52.142;5.408;2023-01-16T06:45:21;2.42;;;0.40;;
71763;SDS011;59602;52.142;5.408;2023-01-16T06:47:51;3.35;;;0.35;;
71763;SDS011;59602;52.142;5.408;2023-01-16T06:50:19;5.07;;;0.30;;
71763;SDS011;59602;52.142;5.408;2023-01-16T06:52:47;1.08;;;0.32;;
71763;SDS011;59602;52.142;5.408;2023-01-16T06:55:14;2.13;;;0.30;;
71763;SDS011;59602;52.142;5.408;2023-01-16T06:57:43;3.85;;;0.20;;
71763;SDS011;59602;52.142;5.408;2023-01-16T07:00:10;1.70;;;0.20;;
71763;SDS011;59602;52.142;5.408;2023-01-16T07:02:38;1.67;;;0.17;;
71763;SDS011;59602;52.142;5.408;2023-01-16T07:05:07;1.63;;;0.25;;
71763;SDS011;59602;52.142;5.408;2023-01-16T07:07:35;3.23;;;0.27;;
71763;SDS011;59602;52.142;5.408;2023-01-16T07:10:02;3.05;;;0.20;;
71763;SDS011;59602;52.142;5.408;2023-01-16T07:12:30;3.80;;;0.40;;
71763;SDS011;59602;52.142;5.408;2023-01-16T07:14:56;2.88;;;0.22;;
71763;SDS011;59602;52.142;5.408;2023-01-16T07:17:41;1.35;;;0.10;;
71763;SDS011;59602;52.142;5.408;2023-01-16T07:20:26;3.53;;;0.50;;
71763;SDS011;59602;52.142;5.408;2023-01-16T07:23:16;2.78;;;0.35;;
71763;SDS011;59602;52.142;5.408;2023-01-16T07:25:47;4.50;;;0.20;;
71763;SDS011;59602;52.142;5.408;2023-01-16T07:28:17;2.78;;;0.28;;
71763;SDS011;59602;52.142;5.408;2023-01-16T07:30:47;3.20;;;0.30;;
71763;SDS011;59602;52.142;5.408;2023-01-16T07:33:14;1.37;;;0.20;;
71763;SDS011;59602;52.142;5.408;2023-01-16T07:35:42;2.65;;;0.10;;
71763;SDS011;59602;52.142;5.408;2023-01-16T07:38:09;2.53;;;0.35;;
71763;SDS011;59602;52.142;5.408;2023-01-16T07:40:36;3.50;;;0.25;;
71763;SDS011;59602;52.142;5.408;2023-01-16T07:43:03;2.28;;;0.30;;
71763;SDS011;59602;52.142;5.408;2023-01-16T07:45:30;1.43;;;0.23;;
71763;SDS011;59602;52.142;5.408;2023-01-16T07:47:58;2.05;;;0.20;;
71763;SDS011;59602;52.142;5.408;2023-01-16T07:50:27;1.95;;;0.20;;
71763;SDS011;59602;52.142;5.408;2023-01-16T07:52:54;1.10;;;0.20;;
71763;SDS011;59602;52.142;5.408;2023-01-16T07:55:21;2.40;;;0.70;;
71763;SDS011;59602;52.142;5.408;2023-01-16T07:57:48;1.10;;;0.17;;
71763;SDS011;59602;52.142;5.408;2023-01-16T08:00:15;6.13;;;1.75;;
71763;SDS011;59602;52.142;5.408;2023-01-16T08:02:42;4.60;;;0.73;;
71763;SDS011;59602;52.142;5.408;2023-01-16T08:05:09;2.28;;;0.32;;
71763;SDS011;59602;52.142;5.408;2023-01-16T08:07:36;2.78;;;0.30;;
71763;SDS011;59602;52.142;5.408;2023-01-16T08:10:03;1.60;;;0.40;;
71763;SDS011;59602;52.142;5.408;2023-01-16T08:12:30;1.95;;;0.30;;
71763;SDS011;59602;52.142;5.408;2023-01-16T08:14:57;2.78;;;0.30;;
71763;SDS011;59602;52.142;5.408;2023-01-16T08:17:23;2.40;;;0.30;;
71763;SDS011;59602;52.142;5.408;2023-01-16T08:19:50;1.48;;;0.40;;
71763;SDS011;59602;52.142;5.408;2023-01-16T08:22:16;2.20;;;0.50;;
71763;SDS011;59602;52.142;5.408;2023-01-16T08:24:44;1.85;;;0.30;;
71763;SDS011;59602;52.142;5.408;2023-01-16T08:27:11;1.92;;;0.35;;
71763;SDS011;59602;52.142;5.408;2023-01-16T08:29:37;3.60;;;0.40;;
71763;SDS011;59602;52.142;5.408;2023-01-16T08:32:04;1.27;;;0.30;;
71763;SDS011;59602;52.142;5.408;2023-01-16T08:34:33;5.60;;;0.67;;
71763;SDS011;59602;52.142;5.408;2023-01-16T08:36:59;4.90;;;0.40;;
71763;SDS011;59602;52.142;5.408;2023-01-16T08:39:28;1.88;;;0.50;;
71763;SDS011;59602;52.142;5.408;2023-01-16T08:41:55;1.95;;;0.35;;
71763;SDS011;59602;52.142;5.408;2023-01-16T08:44:40;2.92;;;0.70;;
71763;SDS011;59602;52.142;5.408;2023-01-16T08:47:26;2.60;;;0.40;;
71763;SDS011;59602;52.142;5.408;2023-01-16T08:50:13;2.72;;;0.60;;
71763;SDS011;59602;52.142;5.408;2023-01-16T08:52:59;2.28;;;0.30;;
71763;SDS011;59602;52.142;5.408;2023-01-16T08:55:26;2.42;;;0.40;;
71763;SDS011;59602;52.142;5.408;2023-01-16T08:57:52;1.92;;;0.35;;
71763;SDS011;59602;52.142;5.408;2023-01-16T09:00:19;2.73;;;0.20;;
71763;SDS011;59602;52.142;5.408;2023-01-16T09:02:46;3.42;;;1.70;;
71763;SDS011;59602;52.142;5.408;2023-01-16T09:05:13;2.83;;;0.40;;
71763;SDS011;59602;52.142;5.408;2023-01-16T09:07:40;3.13;;;0.47;;
71763;SDS011;59602;52.142;5.408;2023-01-16T09:10:08;2.45;;;0.68;;
71763;SDS011;59602;52.142;5.408;2023-01-16T09:12:35;1.93;;;0.30;;
71763;SDS011;59602;52.142;5.408;2023-01-16T09:15:20;2.97;;;0.40;;
71763;SDS011;59602;52.142;5.408;2023-01-16T09:17:46;2.85;;;1.15;;
71763;SDS011;59602;52.142;5.408;2023-01-16T09:20:13;2.63;;;0.80;;
71763;SDS011;59602;52.142;5.408;2023-01-16T09:22:39;2.33;;;0.47;;
71763;SDS011;59602;52.142;5.408;2023-01-16T09:25:12;2.40;;;0.40;;
71763;SDS011;59602;52.142;5.408;2023-01-16T09:27:43;3.72;;;0.77;;
71763;SDS011;59602;52.142;5.408;2023-01-16T09:30:12;2.95;;;0.40;;
71763;SDS011;59602;52.142;5.408;2023-01-16T09:32:39;5.75;;;0.70;;
71763;SDS011;59602;52.142;5.408;2023-01-16T09:35:06;3.28;;;0.45;;
71763;SDS011;59602;52.142;5.408;2023-01-16T09:37:32;2.30;;;0.40;;
71763;SDS011;59602;52.142;5.408;2023-01-16T09:39:59;3.40;;;0.50;;
71763;SDS011;59602;52.142;5.408;2023-01-16T09:45:15;2.70;;;0.60;;
71763;SDS011;59602;52.142;5.408;2023-01-16T09:48:04;2.80;;;0.40;;
71763;SDS011;59602;52.142;5.408;2023-01-16T09:50:39;3.93;;;0.40;;
71763;SDS011;59602;52.142;5.408;2023-01-16T09:53:15;1.95;;;0.30;;
71763;SDS011;59602;52.142;5.408;2023-01-16T09:56:07;2.17;;;0.40;;
71763;SDS011;59602;52.142;5.408;2023-01-16T09:59:12;2.65;;;0.80;;
71763;SDS011;59602;52.142;5.408;2023-01-16T10:01:41;2.42;;;0.30;;
71763;SDS011;59602;52.142;5.408;2023-01-16T10:04:20;2.50;;;0.50;;
71763;SDS011;59602;52.142;5.408;2023-01-16T10:06:56;2.33;;;0.55;;
71763;SDS011;59602;52.142;5.408;2023-01-16T10:09:33;2.78;;;0.60;;
71763;SDS011;59602;52.142;5.408;2023-01-16T10:12:16;1.85;;;0.50;;
71763;SDS011;59602;52.142;5.408;2023-01-16T10:14:45;1.48;;;0.40;;
71763;SDS011;59602;52.142;5.408;2023-01-16T10:17:20;1.33;;;0.40;;
71763;SDS011;59602;52.142;5.408;2023-01-16T10:20:16;1.92;;;0.30;;
71763;SDS011;59602;52.142;5.408;2023-01-16T10:23:06;1.25;;;0.20;;
71763;SDS011;59602;52.142;5.408;2023-01-16T10:25:46;1.65;;;0.30;;
71763;SDS011;59602;52.142;5.408;2023-01-16T10:28:29;7.20;;;1.73;;
71763;SDS011;59602;52.142;5.408;2023-01-16T10:31:18;1.00;;;0.20;;
71763;SDS011;59602;52.142;5.408;2023-01-16T10:33:58;3.10;;;0.30;;
71763;SDS011;59602;52.142;5.408;2023-01-16T10:36:34;1.02;;;0.30;;
71763;SDS011;59602;52.142;5.408;2023-01-16T10:39:04;1.00;;;0.20;;
71763;SDS011;59602;52.142;5.408;2023-01-16T10:41:33;1.02;;;0.10;;
71763;SDS011;59602;52.142;5.408;2023-01-16T10:47:12;3.25;;;0.20;;
71763;SDS011;59602;52.142;5.408;2023-01-16T10:49:58;0.63;;;0.20;;
71763;SDS011;59602;52.142;5.408;2023-01-16T10:52:26;2.25;;;0.10;;
71763;SDS011;59602;52.142;5.408;2023-01-16T10:54:53;0.70;;;0.10;;
71763;SDS011;59602;52.142;5.408;2023-01-16T10:57:24;1.13;;;0.10;;
71763;SDS011;59602;52.142;5.408;2023-01-16T10:59:53;0.77;;;0.20;;
71763;SDS011;59602;52.142;5.408;2023-01-16T11:02:28;1.00;;;0.10;;
71763;SDS011;59602;52.142;5.408;2023-01-16T11:04:57;0.95;;;0.10;;
71763;SDS011;59602;52.142;5.408;2023-01-16T11:07:26;1.55;;;0.35;;
71763;SDS011;59602;52.142;5.408;2023-01-16T11:09:55;1.23;;;0.20;;
71763;SDS011;59602;52.142;5.408;2023-01-16T11:12:24;1.70;;;0.88;;
71763;SDS011;59602;52.142;5.408;2023-01-16T11:15:15;2.05;;;0.20;;
71763;SDS011;59602;52.142;5.408;2023-01-16T11:18:18;0.40;;;0.10;;
71763;SDS011;59602;52.142;5.408;2023-01-16T11:20:55;1.20;;;0.10;;
71763;SDS011;59602;52.142;5.408;2023-01-16T11:23:25;0.57;;;0.10;;
71763;SDS011;59602;52.142;5.408;2023-01-16T11:25:54;1.85;;;0.20;;
71763;SDS011;59602;52.142;5.408;2023-01-16T11:28:25;1.05;;;0.20;;
71763;SDS011;59602;52.142;5.408;2023-01-16T11:30:54;2.08;;;0.20;;
71763;SDS011;59602;52.142;5.408;2023-01-16T11:33:25;1.15;;;0.10;;
71763;SDS011;59602;52.142;5.408;2023-01-16T11:36:00;2.83;;;0.80;;
71763;SDS011;59602;52.142;5.408;2023-01-16T11:38:29;2.85;;;0.30;;
71763;SDS011;59602;52.142;5.408;2023-01-16T11:40:59;0.88;;;0.10;;
71763;SDS011;59602;52.142;5.408;2023-01-16T11:43:27;1.33;;;0.10;;
71763;SDS011;59602;52.142;5.408;2023-01-16T11:48:55;0.60;;;0.13;;
71763;SDS011;59602;52.142;5.408;2023-01-16T11:51:28;0.47;;;0.20;;
71763;SDS011;59602;52.142;5.408;2023-01-16T11:53:57;1.73;;;0.20;;
71763;SDS011;59602;52.142;5.408;2023-01-16T11:59:17;0.70;;;0.20;;
71763;SDS011;59602;52.142;5.408;2023-01-16T12:01:51;8.07;;;1.93;;
71763;SDS011;59602;52.142;5.408;2023-01-16T12:04:46;5.07;;;1.65;;
71763;SDS011;59602;52.142;5.408;2023-01-16T12:07:39;1.75;;;0.40;;
71763;SDS011;59602;52.142;5.408;2023-01-16T12:10:17;0.98;;;0.20;;
71763;SDS011;59602;52.142;5.408;2023-01-16T12:12:52;0.65;;;0.20;;
71763;SDS011;59602;52.142;5.408;2023-01-16T12:15:48;2.10;;;0.10;;
71763;SDS011;59602;52.142;5.408;2023-01-16T12:18:47;1.73;;;0.10;;
71763;SDS011;59602;52.142;5.408;2023-01-16T12:21:27;1.10;;;0.10;;
71763;SDS011;59602;52.142;5.408;2023-01-16T12:24:17;1.23;;;0.20;;
71763;SDS011;59602;52.142;5.408;2023-01-16T12:26:59;0.70;;;0.20;;
71763;SDS011;59602;52.142;5.408;2023-01-16T12:37:55;1.35;;;0.20;;
71763;SDS011;59602;52.142;5.408;2023-01-16T12:40:30;0.90;;;0.10;;
71763;SDS011;59602;52.142;5.408;2023-01-16T12:43:07;2.53;;;0.20;;
71763;SDS011;59602;52.142;5.408;2023-01-16T12:45:54;1.17;;;0.17;;
71763;SDS011;59602;52.142;5.408;2023-01-16T12:48:37;1.52;;;0.20;;
71763;SDS011;59602;52.142;5.408;2023-01-16T12:54:16;0.98;;;0.20;;
71763;SDS011;59602;52.142;5.408;2023-01-16T12:57:01;1.43;;;0.20;;
71763;SDS011;59602;52.142;5.408;2023-01-16T12:59:44;1.40;;;0.20;;
71763;SDS011;59602;52.142;5.408;2023-01-16T13:02:18;20.30;;;4.95;;
71763;SDS011;59602;52.142;5.408;2023-01-16T13:05:09;6.60;;;1.48;;
71763;SDS011;59602;52.142;5.408;2023-01-16T13:07:45;1.63;;;0.30;;
71763;SDS011;59602;52.142;5.408;2023-01-16T13:10:20;4.97;;;1.87;;
71763;SDS011;59602;52.142;5.408;2023-01-16T13:13:14;6.13;;;1.70;;
71763;SDS011;59602;52.142;5.408;2023-01-16T13:15:54;8.32;;;2.53;;
71763;SDS011;59602;52.142;5.408;2023-01-16T13:18:27;34.97;;;13.40;;
71763;SDS011;59602;52.142;5.408;2023-01-16T13:21:00;29.67;;;11.68;;
71763;SDS011;59602;52.142;5.408;2023-01-16T13:23:32;3.63;;;1.53;;
71763;SDS011;59602;52.142;5.408;2023-01-16T13:26:07;1.92;;;0.30;;
71763;SDS011;59602;52.142;5.408;2023-01-16T13:28:39;0.98;;;0.20;;
71763;SDS011;59602;52.142;5.408;2023-01-16T13:31:15;1.00;;;0.15;;
71763;SDS011;59602;52.142;5.408;2023-01-16T13:33:51;2.35;;;0.55;;
71763;SDS011;59602;52.142;5.408;2023-01-16T13:36:28;1.30;;;0.20;;
71763;SDS011;59602;52.142;5.408;2023-01-16T13:39:32;1.23;;;0.10;;
71763;SDS011;59602;52.142;5.408;2023-01-16T13:42:10;2.05;;;0.10;;
71763;SDS011;59602;52.142;5.408;2023-01-16T13:44:42;0.95;;;0.10;;
71763;SDS011;59602;52.142;5.408;2023-01-16T13:47:56;0.40;;;0.10;;
71763;SDS011;59602;52.142;5.408;2023-01-16T13:50:34;0.90;;;0.20;;
71763;SDS011;59602;52.142;5.408;2023-01-16T13:53:02;0.60;;;0.10;;
71763;SDS011;59602;52.142;5.408;2023-01-16T13:55:37;1.40;;;0.20;;
71763;SDS011;59602;52.142;5.408;2023-01-16T13:58:22;2.95;;;0.10;;
71763;SDS011;59602;52.142;5.408;2023-01-16T14:00:57;1.30;;;0.20;;
71763;SDS011;59602;52.142;5.408;2023-01-16T14:03:26;0.50;;;0.20;;
71763;SDS011;59602;52.142;5.408;2023-01-16T14:06:16;0.77;;;0.20;;
71763;SDS011;59602;52.142;5.408;2023-01-16T14:11:37;1.13;;;0.15;;
71763;SDS011;59602;52.142;5.408;2023-01-16T14:14:21;1.02;;;0.30;;
71763;SDS011;59602;52.142;5.408;2023-01-16T14:23:19;1.13;;;0.20;;
71763;SDS011;59602;52.142;5.408;2023-01-16T14:26:08;8.88;;;0.55;;
71763;SDS011;59602;52.142;5.408;2023-01-16T14:28:42;2.15;;;0.20;;
71763;SDS011;59602;52.142;5.408;2023-01-16T14:31:18;1.17;;;0.20;;
71763;SDS011;59602;52.142;5.408;2023-01-16T14:33:48;2.42;;;0.50;;
71763;SDS011;59602;52.142;5.408;2023-01-16T14:36:17;0.63;;;0.10;;
71763;SDS011;59602;52.142;5.408;2023-01-16T14:38:48;5.57;;;0.88;;
71763;SDS011;59602;52.142;5.408;2023-01-16T14:41:20;3.85;;;0.80;;
71763;SDS011;59602;52.142;5.408;2023-01-16T14:44:14;6.43;;;1.10;;
71763;SDS011;59602;52.142;5.408;2023-01-16T14:47:07;1.27;;;0.20;;
71763;SDS011;59602;52.142;5.408;2023-01-16T14:55:26;0.80;;;0.20;;
71763;SDS011;59602;52.142;5.408;2023-01-16T14:57:57;0.67;;;0.20;;
71763;SDS011;59602;52.142;5.408;2023-01-16T15:00:32;9.20;;;1.05;;
71763;SDS011;59602;52.142;5.408;2023-01-16T15:03:04;1.35;;;0.30;;
71763;SDS011;59602;52.142;5.408;2023-01-16T15:05:42;2.22;;;0.20;;
71763;SDS011;59602;52.142;5.408;2023-01-16T15:08:26;1.58;;;0.20;;
71763;SDS011;59602;52.142;5.408;2023-01-16T15:10:56;2.27;;;0.40;;
71763;SDS011;59602;52.142;5.408;2023-01-16T15:14:02;2.55;;;0.30;;
71763;SDS011;59602;52.142;5.408;2023-01-16T15:16:48;1.58;;;0.20;;
71763;SDS011;59602;52.142;5.408;2023-01-16T15:19:34;4.93;;;0.40;;
71763;SDS011;59602;52.142;5.408;2023-01-16T15:22:23;1.00;;;0.25;;
71763;SDS011;59602;52.142;5.408;2023-01-16T15:25:18;1.37;;;0.30;;
71763;SDS011;59602;52.142;5.408;2023-01-16T15:27:48;1.10;;;0.30;;
71763;SDS011;59602;52.142;5.408;2023-01-16T15:30:24;1.05;;;0.20;;
71763;SDS011;59602;52.142;5.408;2023-01-16T15:32:53;1.40;;;0.55;;
71763;SDS011;59602;52.142;5.408;2023-01-16T15:35:42;1.15;;;0.30;;
71763;SDS011;59602;52.142;5.408;2023-01-16T15:38:09;2.17;;;0.20;;
71763;SDS011;59602;52.142;5.408;2023-01-16T15:40:37;0.90;;;0.20;;
71763;SDS011;59602;52.142;5.408;2023-01-16T15:43:04;1.42;;;0.20;;
71763;SDS011;59602;52.142;5.408;2023-01-16T15:45:54;2.15;;;0.20;;
71763;SDS011;59602;52.142;5.408;2023-01-16T15:48:50;1.15;;;0.20;;
71763;SDS011;59602;52.142;5.408;2023-01-16T15:51:37;1.13;;;0.20;;
71763;SDS011;59602;52.142;5.408;2023-01-16T15:54:04;1.15;;;0.10;;
71763;SDS011;59602;52.142;5.408;2023-01-16T15:56:35;0.63;;;0.10;;
71763;SDS011;59602;52.142;5.408;2023-01-16T15:59:21;0.63;;;0.20;;
71763;SDS011;59602;52.142;5.408;2023-01-16T16:01:50;0.68;;;0.10;;
71763;SDS011;59602;52.142;5.408;2023-01-16T16:04:17;0.80;;;0.20;;
71763;SDS011;59602;52.142;5.408;2023-01-16T16:06:45;1.05;;;0.20;;
71763;SDS011;59602;52.142;5.408;2023-01-16T16:09:19;1.15;;;0.20;;
71763;SDS011;59602;52.142;5.408;2023-01-16T16:11:48;0.60;;;0.15;;
71763;SDS011;59602;52.142;5.408;2023-01-16T16:22:52;1.20;;;0.30;;
71763;SDS011;59602;52.142;5.408;2023-01-16T16:25:33;1.25;;;0.30;;
71763;SDS011;59602;52.142;5.408;2023-01-16T16:28:04;1.02;;;0.38;;
71763;SDS011;59602;52.142;5.408;2023-01-16T16:30:42;2.47;;;1.40;;
71763;SDS011;59602;52.142;5.408;2023-01-16T16:33:14;2.05;;;0.60;;
71763;SDS011;59602;52.142;5.408;2023-01-16T16:35:47;3.60;;;1.13;;
71763;SDS011;59602;52.142;5.408;2023-01-16T16:38:17;1.60;;;0.50;;